Wetterdaten: Woche 02.05.16 - 08.05.16 (KW18)
Datum Zeit Auen-Temp. Temp gefhlt Luftfeuchte Luftdruck Regen Wind Richtung Sonnenschein Taupunkt Windben
02.05.2016 00:00 6,0 C 5,9 C 90 % 1019,0 hPa 0,7 mm 0,2 km/h (0 Bft) N 0,00 h 4,5 C 0,5 km/h (0 Bft)
02.05.2016 01:00 6,0 C 5,9 C 90 % 1019,2 hPa 0,7 mm 0,8 km/h (0 Bft) W 0,00 h 4,5 C 1,9 km/h (1 Bft)
02.05.2016 02:00 6,1 C 6,1 C 90 % 1018,9 hPa 0,0 mm 1,9 km/h (1 Bft) W-NW 0,00 h 4,6 C 3,0 km/h (1 Bft)
02.05.2016 03:00 6,1 C 6,1 C 90 % 1018,9 hPa 0,7 mm 1,3 km/h (1 Bft) W 0,00 h 4,6 C 2,1 km/h (1 Bft)
02.05.2016 04:00 6,1 C 6,0 C 90 % 1018,9 hPa 0,0 mm 0,1 km/h (0 Bft) N 0,00 h 4,6 C 0,0 km/h (0 Bft)
02.05.2016 05:00 5,9 C 5,8 C 91 % 1019,1 hPa 0,0 mm 0,0 km/h (0 Bft) N 0,00 h 4,5 C 0,0 km/h (0 Bft)
02.05.2016 06:00 5,9 C 5,8 C 91 % 1019,1 hPa 0,0 mm 0,0 km/h (0 Bft) N 0,00 h 4,5 C 0,0 km/h (0 Bft)
02.05.2016 07:00 5,8 C 5,8 C 90 % 1019,4 hPa 0,0 mm 1,3 km/h (1 Bft) W-NW 0,00 h 4,2 C 2,9 km/h (1 Bft)
02.05.2016 08:00 5,9 C 6,4 C 87 % 1019,9 hPa 0,0 mm 2,3 km/h (1 Bft) W 0,00 h 4,0 C 3,0 km/h (1 Bft)
02.05.2016 09:00 6,6 C 9,1 C 87 % 1020,1 hPa 0,0 mm 3,1 km/h (1 Bft) NO 0,08 h 4,5 C 2,3 km/h (1 Bft)
02.05.2016 10:00 7,9 C 10,0 C 84 % 1020,2 hPa 0,0 mm 0,9 km/h (0 Bft) O-NO 0,00 h 5,3 C 1,2 km/h (1 Bft)
02.05.2016 11:00 8,2 C 10,3 C 81 % 1020,2 hPa 0,0 mm 0,9 km/h (0 Bft) O-NO 0,00 h 5,2 C 1,2 km/h (1 Bft)
02.05.2016 12:00 8,8 C 11,0 C 79 % 1020,4 hPa 0,0 mm 0,8 km/h (0 Bft) O-NO 0,00 h 5,3 C 0,4 km/h (0 Bft)
02.05.2016 13:00 9,4 C 12,5 C 77 % 1020,2 hPa 0,0 mm 2,0 km/h (1 Bft) NO 0,33 h 5,5 C 2,4 km/h (1 Bft)
02.05.2016 14:00 9,8 C 12,2 C 76 % 1020,1 hPa 0,0 mm 1,6 km/h (1 Bft) NO 0,25 h 5,7 C 3,7 km/h (1 Bft)
02.05.2016 15:00 10,3 C 13,2 C 75 % 1019,9 hPa 0,0 mm 4,2 km/h (1 Bft) SW 0,25 h 6,1 C 6,4 km/h (2 Bft)
02.05.2016 16:00 10,7 C 13,2 C 74 % 1019,7 hPa 0,0 mm 3,6 km/h (1 Bft) W-SW 0,08 h 6,3 C 3,6 km/h (1 Bft)
02.05.2016 17:00 11,2 C 13,5 C 72 % 1019,5 hPa 0,0 mm 2,3 km/h (1 Bft) W-SW 0,00 h 6,4 C 2,8 km/h (1 Bft)
02.05.2016 18:00 11,0 C 12,3 C 72 % 1019,5 hPa 0,0 mm 2,6 km/h (1 Bft) SW 0,00 h 6,1 C 3,9 km/h (1 Bft)
02.05.2016 19:00 9,8 C 10,2 C 77 % 1019,1 hPa 0,0 mm 1,1 km/h (0 Bft) O-NO 0,00 h 5,9 C 1,4 km/h (1 Bft)
02.05.2016 20:00 8,8 C 9,2 C 78 % 1018,9 hPa 0,0 mm 1,4 km/h (1 Bft) SW 0,00 h 5,3 C 3,1 km/h (1 Bft)
02.05.2016 21:00 7,8 C 7,7 C 81 % 1019,1 hPa 0,0 mm 2,7 km/h (1 Bft) SW 0,00 h 4,8 C 2,8 km/h (1 Bft)
02.05.2016 22:00 7,6 C 7,5 C 84 % 1018,9 hPa 0,0 mm 0,4 km/h (0 Bft) S-SW 0,00 h 5,0 C 0,0 km/h (0 Bft)
02.05.2016 23:00 7,3 C 7,2 C 84 % 1018,9 hPa 0,0 mm 0,0 km/h (0 Bft) N 0,00 h 4,8 C 0,0 km/h (0 Bft)
03.05.2016 00:00 6,7 C 6,6 C 85 % 1019,1 hPa 0,0 mm 0,7 km/h (0 Bft) SW 0,00 h 4,4 C 2,7 km/h (1 Bft)
03.05.2016 01:00 6,0 C 5,8 C 86 % 1018,9 hPa 0,0 mm 2,2 km/h (1 Bft) SW 0,00 h 3,8 C 5,7 km/h (1 Bft)
03.05.2016 02:00 5,9 C 5,7 C 87 % 1018,8 hPa 0,0 mm 4,3 km/h (1 Bft) S 0,00 h 3,8 C 6,2 km/h (2 Bft)
03.05.2016 03:00 5,8 C 5,6 C 87 % 1018,5 hPa 0,0 mm 3,4 km/h (1 Bft) S 0,00 h 3,7 C 7,0 km/h (2 Bft)
03.05.2016 04:00 6,5 C 6,3 C 83 % 1018,2 hPa 0,0 mm 5,6 km/h (1 Bft) S 0,00 h 3,7 C 7,6 km/h (2 Bft)
03.05.2016 05:00 6,3 C 6,2 C 82 % 1018,1 hPa 0,0 mm 5,4 km/h (1 Bft) SW 0,00 h 3,5 C 7,4 km/h (2 Bft)
03.05.2016 06:00 7,4 C 7,1 C 80 % 1018,0 hPa 0,0 mm 10,7 km/h (2 Bft) S-SW 0,00 h 4,1 C 10,9 km/h (2 Bft)
03.05.2016 07:00 7,5 C 8,7 C 79 % 1018,1 hPa 0,0 mm 3,1 km/h (1 Bft) NO 0,17 h 4,1 C 2,6 km/h (1 Bft)
03.05.2016 08:00 10,0 C 13,0 C 74 % 1018,6 hPa 0,0 mm 4,5 km/h (1 Bft) W 0,50 h 5,7 C 6,6 km/h (2 Bft)
03.05.2016 09:00 10,2 C 11,8 C 71 % 1018,7 hPa 0,0 mm 9,7 km/h (2 Bft) W-NW 0,17 h 5,2 C 12,9 km/h (3 Bft)
03.05.2016 10:00 11,3 C 13,7 C 68 % 1018,8 hPa 0,0 mm 9,2 km/h (2 Bft) W-NW 0,17 h 5,5 C 13,5 km/h (3 Bft)
03.05.2016 11:00 13,2 C 16,4 C 61 % 1018,9 hPa 0,0 mm 9,1 km/h (2 Bft) W-SW 0,50 h 5,7 C 7,9 km/h (2 Bft)
03.05.2016 12:00 11,7 C 13,5 C 62 % 1018,7 hPa 0,0 mm 8,6 km/h (2 Bft) SW 0,08 h 4,6 C 12,3 km/h (3 Bft)
03.05.2016 13:00 12,1 C 14,8 C 60 % 1018,8 hPa 0,7 mm 12,4 km/h (3 Bft) W 0,42 h 4,6 C 19,2 km/h (3 Bft)
03.05.2016 14:00 8,9 C 9,6 C 74 % 1018,9 hPa 0,0 mm 4,4 km/h (1 Bft) W 0,00 h 4,5 C 6,8 km/h (2 Bft)
03.05.2016 15:00 10,8 C 12,1 C 68 % 1018,8 hPa 0,0 mm 12,0 km/h (2 Bft) W 0,00 h 5,1 C 13,5 km/h (3 Bft)
03.05.2016 16:00 10,7 C 12,3 C 66 % 1018,8 hPa 0,0 mm 8,3 km/h (2 Bft) S-SW 0,00 h 4,6 C 11,0 km/h (2 Bft)
03.05.2016 17:00 8,3 C 8,1 C 72 % 1019,4 hPa 0,7 mm 11,8 km/h (2 Bft) W-SW 0,00 h 3,5 C 14,8 km/h (3 Bft)
03.05.2016 18:00 6,3 C 5,7 C 82 % 1020,0 hPa 1,4 mm 11,0 km/h (2 Bft) SW 0,00 h 3,4 C 13,8 km/h (3 Bft)
03.05.2016 19:00 5,8 C 5,4 C 85 % 1020,3 hPa 2,1 mm 8,2 km/h (2 Bft) SW 0,00 h 3,4 C 8,6 km/h (2 Bft)
03.05.2016 20:00 5,1 C 4,6 C 87 % 1021,1 hPa 2,7 mm 8,6 km/h (2 Bft) W-SW 0,00 h 3,1 C 11,3 km/h (2 Bft)
03.05.2016 21:00 4,9 C 4,3 C 88 % 1021,9 hPa 0,7 mm 10,0 km/h (2 Bft) W 0,00 h 3,1 C 13,2 km/h (3 Bft)
03.05.2016 22:00 5,0 C 4,4 C 88 % 1022,8 hPa 0,0 mm 9,8 km/h (2 Bft) SW 0,00 h 3,1 C 12,4 km/h (3 Bft)
03.05.2016 23:00 5,1 C 4,6 C 87 % 1023,2 hPa 0,0 mm 7,5 km/h (2 Bft) W-SW 0,00 h 3,1 C 8,6 km/h (2 Bft)
04.05.2016 00:00 4,6 C 4,1 C 87 % 1023,6 hPa 0,0 mm 7,9 km/h (2 Bft) W-SW 0,00 h 2,6 C 13,4 km/h (3 Bft)
04.05.2016 01:00 4,5 C 4,2 C 87 % 1023,9 hPa 0,0 mm 5,6 km/h (1 Bft) SW 0,00 h 2,5 C 7,9 km/h (2 Bft)
04.05.2016 02:00 4,0 C 4,1 C 87 % 1023,8 hPa 0,0 mm 5,0 km/h (1 Bft) W-SW 0,00 h 2,0 C 7,1 km/h (2 Bft)
04.05.2016 03:00 0,0 C 4,0 C 87 % 1023,8 hPa 0,0 mm 5,7 km/h (1 Bft) W 0,00 h -1,9 C 6,6 km/h (2 Bft)
04.05.2016 04:00 0,0 C 4,2 C 87 % 1024,0 hPa 0,0 mm 2,8 km/h (1 Bft) W-SW 0,00 h -2,0 C 4,7 km/h (1 Bft)
04.05.2016 05:00 4,3 C 4,0 C 87 % 1024,0 hPa 0,0 mm 6,8 km/h (2 Bft) SW 0,00 h 2,3 C 7,4 km/h (2 Bft)
04.05.2016 06:00 0,7 C 4,3 C 86 % 1024,3 hPa 0,0 mm 3,3 km/h (1 Bft) S 0,00 h -1,4 C 2,7 km/h (1 Bft)
04.05.2016 07:00 4,9 C 5,8 C 84 % 1024,7 hPa 0,7 mm 1,0 km/h (0 Bft) W-NW 0,00 h 2,4 C 2,0 km/h (1 Bft)
04.05.2016 08:00 6,2 C 8,4 C 79 % 1024,8 hPa 0,0 mm 3,5 km/h (1 Bft) N-NW 0,08 h 2,9 C 4,0 km/h (1 Bft)
04.05.2016 09:00 6,3 C 8,1 C 77 % 1025,1 hPa 0,0 mm 2,5 km/h (1 Bft) NW 0,00 h 2,5 C 3,9 km/h (1 Bft)
04.05.2016 10:00 6,4 C 8,2 C 74 % 1025,1 hPa 0,0 mm 2,0 km/h (1 Bft) N-NO 0,00 h 2,2 C 1,7 km/h (1 Bft)
04.05.2016 11:00 7,6 C 11,1 C 71 % 1025,1 hPa 0,0 mm 3,3 km/h (1 Bft) O-NO 0,58 h 2,7 C 3,6 km/h (1 Bft)
04.05.2016 12:00 9,1 C 14,3 C 62 % 1025,5 hPa 0,0 mm 5,8 km/h (1 Bft) S-SW 0,83 h 2,3 C 7,7 km/h (2 Bft)
04.05.2016 13:00 8,4 C 10,6 C 63 % 1025,3 hPa 0,0 mm 7,1 km/h (2 Bft) W 0,17 h 1,8 C 8,0 km/h (2 Bft)
04.05.2016 14:00 10,1 C 14,5 C 55 % 1024,9 hPa 0,0 mm 4,8 km/h (1 Bft) N-NO 0,83 h 1,4 C 6,7 km/h (2 Bft)
04.05.2016 15:00 9,7 C 12,6 C 53 % 1024,5 hPa 0,0 mm 5,3 km/h (1 Bft) O-NO 0,25 h 0,5 C 6,3 km/h (2 Bft)
04.05.2016 16:00 10,3 C 14,0 C 51 % 1024,2 hPa 0,0 mm 6,7 km/h (2 Bft) O-NO 0,58 h 0,5 C 6,3 km/h (2 Bft)
04.05.2016 17:00 9,2 C 10,4 C 55 % 1024,1 hPa 0,0 mm 3,8 km/h (1 Bft) NO 0,00 h 0,7 C 5,4 km/h (1 Bft)
04.05.2016 18:00 9,7 C 11,7 C 53 % 1024,0 hPa 0,0 mm 4,5 km/h (1 Bft) O-NO 0,17 h 0,4 C 6,5 km/h (2 Bft)
04.05.2016 19:00 7,8 C 8,3 C 56 % 1023,8 hPa 0,0 mm 0,4 km/h (0 Bft) S-SO 0,00 h -0,4 C 0,0 km/h (0 Bft)
04.05.2016 20:00 5,3 C 5,3 C 67 % 1023,8 hPa 0,0 mm 0,1 km/h (0 Bft) N 0,00 h -0,3 C 0,0 km/h (0 Bft)
04.05.2016 21:00 4,7 C 4,1 C 72 % 1023,9 hPa 0,0 mm 0,0 km/h (0 Bft) N 0,00 h 0,1 C 0,0 km/h (0 Bft)
04.05.2016 22:00 3,3 C 2,6 C 76 % 1024,2 hPa 0,0 mm 0,0 km/h (0 Bft) N 0,00 h -0,6 C 0,0 km/h (0 Bft)
04.05.2016 23:00 2,1 C 1,5 C 80 % 1024,3 hPa 0,0 mm 0,8 km/h (0 Bft) O-SO 0,00 h -1,1 C 1,1 km/h (1 Bft)
05.05.2016 00:00 0,9 C 0,3 C 81 % 1024,1 hPa 0,0 mm 0,1 km/h (0 Bft) N 0,00 h -2,0 C 0,0 km/h (0 Bft)
05.05.2016 01:00 -0,1 C -0,7 C 83 % 1023,8 hPa 0,0 mm 0,0 km/h (0 Bft) N 0,00 h -2,6 C 0,0 km/h (0 Bft)
05.05.2016 02:00 -0,7 C -1,2 C 85 % 1023,4 hPa 0,0 mm 0,2 km/h (0 Bft) N 0,00 h -2,9 C 0,3 km/h (0 Bft)
05.05.2016 03:00 -1,4 C -1,8 C 86 % 1023,1 hPa 0,0 mm 0,0 km/h (0 Bft) N 0,00 h -3,5 C 0,0 km/h (0 Bft)
05.05.2016 04:00 -2,2 C -2,6 C 86 % 1022,8 hPa 0,0 mm 0,0 km/h (0 Bft) N 0,00 h -4,2 C 0,0 km/h (0 Bft)
05.05.2016 05:00 -2,5 C -2,8 C 86 % 1022,9 hPa 0,0 mm 0,0 km/h (0 Bft) N 0,00 h -4,5 C 0,0 km/h (0 Bft)
05.05.2016 06:00 -1,9 C -0,6 C 85 % 1022,6 hPa 0,0 mm 0,1 km/h (0 Bft) N 0,33 h -4,1 C 0,5 km/h (0 Bft)
05.05.2016 07:00 1,2 C 9,0 C 84 % 1022,5 hPa 0,0 mm 0,3 km/h (0 Bft) N-NO 1,00 h -1,3 C 0,8 km/h (0 Bft)
05.05.2016 08:00 6,0 C 12,4 C 75 % 1022,2 hPa 0,0 mm 6,0 km/h (2 Bft) O-NO 1,00 h 1,9 C 9,6 km/h (2 Bft)
05.05.2016 09:00 7,5 C 11,9 C 66 % 1021,5 hPa 0,0 mm 11,8 km/h (2 Bft) NO 0,83 h 1,4 C 15,6 km/h (3 Bft)
05.05.2016 10:00 9,2 C 13,5 C 61 % 1022,2 hPa 0,0 mm 11,7 km/h (2 Bft) O-NO 0,92 h 2,1 C 13,0 km/h (3 Bft)
05.05.2016 11:00 10,9 C 14,9 C 57 % 1023,2 hPa 0,0 mm 12,5 km/h (3 Bft) NO 0,42 h 2,6 C 17,5 km/h (3 Bft)
05.05.2016 12:00 12,2 C 15,4 C 55 % 1023,2 hPa 0,0 mm 13,8 km/h (3 Bft) O-NO 0,13 h 3,5 C 17,5 km/h (3 Bft)
05.05.2016 13:00 13,4 C 16,2 C 53 % 1023,4 hPa 0,0 mm 14,3 km/h (3 Bft) NO 0,00 h 3,9 C 21,1 km/h (4 Bft)
05.05.2016 14:00 14,5 C 17,7 C 52 % 1021,7 hPa 0,0 mm 14,2 km/h (3 Bft) O-NO 0,00 h 4,6 C 16,3 km/h (3 Bft)
05.05.2016 15:00 15,0 C 18,1 C 51 % 1020,8 hPa 0,0 mm 14,6 km/h (3 Bft) O-NO 0,00 h 5,0 C 16,4 km/h (3 Bft)
05.05.2016 16:00 14,8 C 18,1 C 52 % 1020,1 hPa 0,0 mm 14,8 km/h (3 Bft) NO 0,58 h 5,0 C 19,0 km/h (3 Bft)
05.05.2016 17:00 14,7 C 15,9 C 54 % 1019,8 hPa 0,0 mm 14,7 km/h (3 Bft) O-NO 0,00 h 5,5 C 21,0 km/h (4 Bft)
05.05.2016 18:00 14,4 C 15,8 C 55 % 1019,6 hPa 0,0 mm 13,2 km/h (3 Bft) O-NO 0,00 h 5,5 C 13,3 km/h (3 Bft)
05.05.2016 19:00 13,5 C 15,8 C 57 % 1019,4 hPa 0,0 mm 9,1 km/h (2 Bft) NO 0,58 h 5,2 C 11,4 km/h (2 Bft)
05.05.2016 20:00 11,0 C 12,4 C 65 % 1019,3 hPa 0,0 mm 0,9 km/h (0 Bft) O-NO 0,42 h 4,6 C 2,6 km/h (1 Bft)
05.05.2016 21:00 9,1 C 8,7 C 73 % 1019,1 hPa 0,0 mm 0,5 km/h (0 Bft) O-SO 0,00 h 4,6 C 1,1 km/h (0 Bft)
05.05.2016 22:00 7,0 C 6,7 C 78 % 1018,9 hPa 0,0 mm 0,3 km/h (0 Bft) N 0,00 h 3,5 C 0,7 km/h (0 Bft)
05.05.2016 23:00 5,5 C 5,4 C 82 % 1018,7 hPa 0,0 mm 0,2 km/h (0 Bft) N 0,00 h 2,7 C 0,0 km/h (0 Bft)
06.05.2016 00:00 3,9 C 3,6 C 85 % 1018,3 hPa 0,0 mm 0,0 km/h (0 Bft) N 0,00 h 1,6 C 0,0 km/h (0 Bft)
06.05.2016 01:00 3,0 C 2,6 C 87 % 1018,0 hPa 0,0 mm 0,0 km/h (0 Bft) N 0,00 h 1,0 C 0,0 km/h (0 Bft)
06.05.2016 02:00 2,2 C 1,9 C 88 % 1017,7 hPa 0,0 mm 0,1 km/h (0 Bft) N 0,00 h 0,4 C 0,4 km/h (0 Bft)
06.05.2016 03:00 1,7 C 1,4 C 89 % 1017,2 hPa 0,0 mm 0,0 km/h (0 Bft) N 0,00 h 0,0 C 0,0 km/h (0 Bft)
06.05.2016 04:00 1,7 C 1,3 C 91 % 1016,9 hPa 0,0 mm 0,0 km/h (0 Bft) N 0,00 h 0,3 C 0,0 km/h (0 Bft)
06.05.2016 05:00 2,0 C 1,6 C 90 % 1016,8 hPa 0,0 mm 1,8 km/h (1 Bft) O-SO 0,00 h 0,6 C 3,7 km/h (1 Bft)
06.05.2016 06:00 2,4 C 3,9 C 85 % 1017,1 hPa 0,0 mm 1,0 km/h (0 Bft) O-SO 0,42 h 0,1 C 1,2 km/h (1 Bft)
06.05.2016 07:00 6,0 C 14,3 C 78 % 1017,3 hPa 0,0 mm 1,2 km/h (1 Bft) N-NO 1,00 h 2,5 C 1,8 km/h (1 Bft)
06.05.2016 08:00 12,8 C 22,3 C 65 % 1017,5 hPa 0,0 mm 0,2 km/h (0 Bft) N 1,00 h 6,3 C 0,3 km/h (0 Bft)
06.05.2016 09:00 17,0 C 25,2 C 54 % 1017,1 hPa 0,0 mm 1,0 km/h (0 Bft) N-NO 1,00 h 7,5 C 1,8 km/h (1 Bft)
06.05.2016 10:00 18,2 C 24,6 C 41 % 1017,3 hPa 0,0 mm 4,4 km/h (1 Bft) N-NO 1,00 h 4,8 C 6,0 km/h (2 Bft)
06.05.2016 11:00 18,9 C 23,9 C 39 % 1018,2 hPa 0,0 mm 6,8 km/h (2 Bft) O-NO 1,00 h 4,8 C 8,8 km/h (2 Bft)
06.05.2016 12:00 19,5 C 23,0 C 40 % 1018,7 hPa 0,0 mm 9,8 km/h (2 Bft) NW 0,08 h 5,6 C 15,5 km/h (3 Bft)
06.05.2016 13:00 19,6 C 23,0 C 43 % 1018,8 hPa 0,0 mm 9,0 km/h (2 Bft) NO 0,42 h 6,5 C 14,8 km/h (3 Bft)
06.05.2016 14:00 19,6 C 22,7 C 40 % 1016,9 hPa 0,0 mm 10,2 km/h (2 Bft) N-NO 0,33 h 5,5 C 15,5 km/h (3 Bft)
06.05.2016 15:00 20,2 C 23,7 C 36 % 1015,7 hPa 0,0 mm 12,0 km/h (2 Bft) O-NO 0,43 h 4,6 C 12,8 km/h (3 Bft)
06.05.2016 16:00 19,8 C 23,4 C 36 % 1014,9 hPa 0,0 mm 12,9 km/h (3 Bft) O-NO 0,92 h 4,4 C 18,7 km/h (3 Bft)
06.05.2016 17:00 19,4 C 20,7 C 37 % 1014,3 hPa 0,0 mm 13,9 km/h (3 Bft) NO 0,00 h 4,4 C 20,1 km/h (4 Bft)
06.05.2016 18:00 19,1 C 20,6 C 37 % 1014,1 hPa 0,0 mm 13,0 km/h (3 Bft) NO 0,08 h 4,1 C 17,8 km/h (3 Bft)
06.05.2016 19:00 18,0 C 20,6 C 40 % 1013,8 hPa 0,0 mm 6,9 km/h (2 Bft) O-NO 0,75 h 4,3 C 8,4 km/h (2 Bft)
06.05.2016 20:00 14,8 C 16,5 C 49 % 1013,7 hPa 0,0 mm 0,6 km/h (0 Bft) O-NO 0,42 h 4,1 C 0,6 km/h (0 Bft)
06.05.2016 21:00 11,2 C 11,3 C 58 % 1013,9 hPa 0,0 mm 0,3 km/h (0 Bft) S-SO 0,00 h 3,2 C 0,6 km/h (0 Bft)
06.05.2016 22:00 9,7 C 9,7 C 64 % 1014,0 hPa 0,0 mm 0,9 km/h (0 Bft) S-SO 0,00 h 3,1 C 2,2 km/h (1 Bft)
06.05.2016 23:00 7,5 C 7,1 C 69 % 1013,9 hPa 0,0 mm 0,0 km/h (0 Bft) N 0,00 h 2,2 C 0,0 km/h (0 Bft)
07.05.2016 00:00 6,6 C 6,2 C 74 % 1013,9 hPa 0,0 mm 0,0 km/h (0 Bft) N 0,00 h 2,3 C 0,0 km/h (0 Bft)
07.05.2016 01:00 5,9 C 5,5 C 78 % 1013,9 hPa 0,0 mm 0,0 km/h (0 Bft) N 0,00 h 2,4 C 0,0 km/h (0 Bft)
07.05.2016 02:00 5,4 C 5,0 C 79 % 1013,5 hPa 0,0 mm 0,0 km/h (0 Bft) N 0,00 h 2,1 C 0,0 km/h (0 Bft)
07.05.2016 03:00 5,0 C 4,6 C 80 % 1013,2 hPa 0,0 mm 0,0 km/h (0 Bft) N 0,00 h 1,7 C 0,0 km/h (0 Bft)
07.05.2016 04:00 4,4 C 4,0 C 82 % 1013,1 hPa 0,0 mm 0,0 km/h (0 Bft) N 0,00 h 1,5 C 0,0 km/h (0 Bft)
07.05.2016 05:00 3,8 C 3,5 C 81 % 1013,0 hPa 0,0 mm 0,2 km/h (0 Bft) N 0,00 h 1,0 C 0,0 km/h (0 Bft)
07.05.2016 06:00 4,5 C 6,5 C 78 % 1013,1 hPa 0,0 mm 0,4 km/h (0 Bft) S 0,42 h 1,1 C 1,2 km/h (1 Bft)
07.05.2016 07:00 8,4 C 16,9 C 72 % 1013,4 hPa 0,0 mm 0,3 km/h (0 Bft) S 0,98 h 3,6 C 0,9 km/h (0 Bft)
07.05.2016 08:00 14,7 C 24,1 C 60 % 1013,7 hPa 0,0 mm 0,6 km/h (0 Bft) N-NO 1,00 h 6,9 C 1,6 km/h (1 Bft)
07.05.2016 09:00 17,9 C 23,8 C 47 % 1013,7 hPa 0,0 mm 5,9 km/h (2 Bft) NO 1,00 h 6,4 C 8,7 km/h (2 Bft)
07.05.2016 10:00 19,0 C 24,0 C 43 % 1014,1 hPa 0,0 mm 8,9 km/h (2 Bft) N-NO 1,00 h 6,1 C 14,3 km/h (3 Bft)
07.05.2016 11:00 19,9 C 23,8 C 39 % 1014,3 hPa 0,0 mm 11,1 km/h (2 Bft) N-NO 0,92 h 5,4 C 15,9 km/h (3 Bft)
07.05.2016 12:00 20,4 C 23,8 C 36 % 1014,1 hPa 0,0 mm 13,2 km/h (3 Bft) NO 0,17 h 4,7 C 23,0 km/h (4 Bft)
07.05.2016 13:00 20,8 C 23,4 C 36 % 1013,6 hPa 0,0 mm 13,9 km/h (3 Bft) NO 0,17 h 5,3 C 19,9 km/h (4 Bft)
07.05.2016 14:00 21,1 C 24,5 C 36 % 1013,1 hPa 0,0 mm 14,2 km/h (3 Bft) O-NO 0,00 h 5,3 C 16,4 km/h (3 Bft)
07.05.2016 15:00 21,1 C 24,0 C 36 % 1012,4 hPa 0,0 mm 16,1 km/h (3 Bft) N-NO 0,00 h 5,6 C 20,6 km/h (4 Bft)
07.05.2016 16:00 20,8 C 24,2 C 36 % 1011,8 hPa 0,0 mm 14,8 km/h (3 Bft) N-NO 0,92 h 5,2 C 19,4 km/h (3 Bft)
07.05.2016 17:00 20,4 C 21,6 C 37 % 1011,3 hPa 0,0 mm 15,7 km/h (3 Bft) NO 0,00 h 5,0 C 20,6 km/h (4 Bft)
07.05.2016 18:00 19,8 C 21,3 C 37 % 1011,0 hPa 0,0 mm 13,7 km/h (3 Bft) NO 0,00 h 4,9 C 16,2 km/h (3 Bft)
07.05.2016 19:00 18,4 C 20,1 C 40 % 1011,2 hPa 0,0 mm 14,2 km/h (3 Bft) NO 0,00 h 4,6 C 16,5 km/h (3 Bft)
07.05.2016 20:00 15,6 C 16,3 C 46 % 1011,2 hPa 0,0 mm 5,5 km/h (1 Bft) O-NO 0,00 h 3,9 C 6,1 km/h (2 Bft)
07.05.2016 21:00 13,2 C 13,0 C 51 % 1011,5 hPa 0,0 mm 1,2 km/h (1 Bft) SO 0,00 h 3,4 C 2,3 km/h (1 Bft)
07.05.2016 22:00 11,2 C 11,1 C 58 % 1011,7 hPa 0,0 mm 0,5 km/h (0 Bft) O-SO 0,00 h 3,3 C 0,6 km/h (0 Bft)
07.05.2016 23:00 8,8 C 8,7 C 65 % 1011,6 hPa 0,0 mm 0,2 km/h (0 Bft) N 0,00 h 2,7 C 0,3 km/h (0 Bft)
08.05.2016 00:00 8,2 C 8,2 C 70 % 1011,8 hPa 0,0 mm 2,3 km/h (1 Bft) S-SO 0,00 h 3,0 C 3,2 km/h (1 Bft)
08.05.2016 01:00 7,5 C 7,5 C 71 % 1012,0 hPa 0,0 mm 1,8 km/h (1 Bft) S-SO 0,00 h 2,5 C 2,6 km/h (1 Bft)
08.05.2016 02:00 6,4 C 6,2 C 75 % 1012,0 hPa 0,0 mm 0,2 km/h (0 Bft) N 0,00 h 2,4 C 0,0 km/h (0 Bft)
08.05.2016 03:00 5,8 C 5,4 C 79 % 1011,9 hPa 0,0 mm 0,4 km/h (0 Bft) NO 0,00 h 2,3 C 0,4 km/h (0 Bft)
08.05.2016 04:00 5,2 C 4,8 C 79 % 1011,8 hPa 0,0 mm 0,1 km/h (0 Bft) N 0,00 h 1,8 C 0,0 km/h (0 Bft)
08.05.2016 05:00 4,1 C 3,7 C 80 % 1011,7 hPa 0,0 mm 0,0 km/h (0 Bft) N 0,00 h 1,0 C 0,0 km/h (0 Bft)
08.05.2016 06:00 4,5 C 6,4 C 81 % 1011,8 hPa 0,0 mm 0,1 km/h (0 Bft) N 0,42 h 1,5 C 0,3 km/h (0 Bft)
08.05.2016 07:00 8,4 C 17,1 C 74 % 1012,2 hPa 0,0 mm 0,2 km/h (0 Bft) O 1,00 h 4,0 C 0,0 km/h (0 Bft)
08.05.2016 08:00 13,9 C 24,6 C 61 % 1012,5 hPa 0,0 mm 0,0 km/h (0 Bft) N 1,00 h 6,5 C 0,0 km/h (0 Bft)
08.05.2016 09:00 18,0 C 25,6 C 50 % 1013,3 hPa 0,0 mm 2,0 km/h (1 Bft) O-NO 1,00 h 7,3 C 4,3 km/h (1 Bft)
08.05.2016 10:00 19,5 C 25,1 C 44 % 1014,1 hPa 0,0 mm 6,8 km/h (2 Bft) O-NO 1,00 h 6,9 C 10,6 km/h (2 Bft)
08.05.2016 11:00 19,7 C 23,2 C 40 % 1014,6 hPa 0,0 mm 14,3 km/h (3 Bft) N-NO 0,33 h 5,8 C 18,6 km/h (3 Bft)
08.05.2016 12:00 20,4 C 23,7 C 40 % 1014,4 hPa 0,0 mm 13,9 km/h (3 Bft) N-NO 0,08 h 6,2 C 18,7 km/h (3 Bft)
08.05.2016 13:00 21,0 C 23,5 C 39 % 1013,5 hPa 0,0 mm 14,8 km/h (3 Bft) N-NO 0,00 h 6,3 C 20,7 km/h (4 Bft)
08.05.2016 14:00 21,4 C 24,7 C 38 % 1012,9 hPa 0,0 mm 15,0 km/h (3 Bft) NO 0,00 h 6,6 C 18,1 km/h (3 Bft)
08.05.2016 15:00 21,6 C 25,0 C 38 % 1012,5 hPa 0,0 mm 15,8 km/h (3 Bft) NO 0,25 h 6,5 C 24,2 km/h (4 Bft)
08.05.2016 16:00 21,0 C 24,6 C 38 % 1012,1 hPa 0,0 mm 11,7 km/h (2 Bft) O-NO 0,67 h 6,0 C 14,4 km/h (3 Bft)
08.05.2016 17:00 20,2 C 21,2 C 38 % 1012,1 hPa 0,0 mm 14,8 km/h (3 Bft) NO 0,00 h 5,6 C 19,6 km/h (3 Bft)
08.05.2016 18:00 19,8 C 21,0 C 40 % 1011,9 hPa 0,0 mm 16,2 km/h (3 Bft) NO 0,00 h 5,7 C 21,0 km/h (4 Bft)
08.05.2016 19:00 18,7 C 21,0 C 43 % 1011,8 hPa 0,0 mm 9,9 km/h (2 Bft) NO 0,67 h 6,0 C 10,6 km/h (2 Bft)
08.05.2016 20:00 15,7 C 16,2 C 51 % 1012,2 hPa 0,0 mm 4,0 km/h (1 Bft) O-SO 0,00 h 5,4 C 6,7 km/h (2 Bft)
08.05.2016 21:00 13,5 C 13,4 C 59 % 1012,6 hPa 0,0 mm 1,7 km/h (1 Bft) O-NO 0,00 h 5,5 C 1,8 km/h (1 Bft)
08.05.2016 22:00 11,3 C 11,3 C 66 % 1012,9 hPa 0,0 mm 0,2 km/h (0 Bft) N 0,00 h 5,2 C 0,0 km/h (0 Bft)
08.05.2016 23:00 10,0 C 10,0 C 71 % 1012,8 hPa 0,0 mm 0,5 km/h (0 Bft) N 0,00 h 5,0 C 0,6 km/h (0 Bft)
Min-Datum _ 05.05.16 05.05.16 07.05.16 07.05.16 - 08.05.16 - - 05.05.16 08.05.16
_ Min-Zeit 05:45 05:55 14:05 18:35 - 23:35 - - 05:45 23:00
Minimum _ -2,7 C -3,0 C 35 % 1010,9 hPa - 0,0 km/h (0 Bft) - - -4,7 C 0,0 km/h (0 Bft)
Max-Datum _ 08.05.16 08.05.16 06.05.16 04.05.16 03.05.16 08.05.16 - 08.05.16 06.05.16 08.05.16
_ Max-Zeit 15:00 09:00 05:00 13:00 20:05 15:15 - 19:20 09:17 18:35
Maximum _ 21,8 C 27,4 C 91 % 1025,6 hPa 2,7 mm 20,6 km/h
NO (4 Bft)
- 0,08 h 8,3 C 45,6 km/h
NO (6 Bft)
Durchschnitt _ 9,8 C 11,5 C 68 % 1018,1 hPa #11,0 mm 5,1 km/h (1 Bft) O-NO #34:33 h 3,4 C 6,8 km/h (2 Bft)